Marion, Connecticut
Current Conditions -  °F | °C
As of 3:00 PM on Monday 26 Jan 2015 (Local Time) from KMMK Reporting Station
Light Snow Light Snow  
Wind Chill:   Ceiling: 2200
Heat Index: 19°   Visibility: 1mi
Dew Point: 14°   Wind: 9mph
Humidity: 81%   Direction: 10°N
Pressure: 29.95"   Gusts: 17mph
Location:  41.56°N, 72.93°W
Report Text: KMMK 262000Z AUTO 01008G15KT 1SM -SN OVC022 M07/M10 A2995 RMK AO2 P0000 T10721100 TSNO
Loading
Personal Weather Stations






























Interactive Weather Map New forecast layout! Learn more

10-Day Weather Forecast

Advertisements
Track Severe Weather on mobile